sensor_id;sensor_type;location;lat;lon;timestamp;P1;durP1;ratioP1;P2;durP2;ratioP2
29416;SDS011;28421;51.030;4.006;2022-11-14T06:04:20;20.52;;;13.82;;
29416;SDS011;28421;51.030;4.006;2022-11-14T06:07:03;18.23;;;14.60;;
29416;SDS011;28421;51.030;4.006;2022-11-14T06:09:47;22.23;;;13.57;;
29416;SDS011;28421;51.030;4.006;2022-11-14T06:12:31;21.97;;;15.27;;
29416;SDS011;28421;51.030;4.006;2022-11-14T06:15:16;19.73;;;14.10;;
29416;SDS011;28421;51.030;4.006;2022-11-14T06:18:00;22.20;;;14.70;;
29416;SDS011;28421;51.030;4.006;2022-11-14T06:20:44;21.90;;;14.47;;
29416;SDS011;28421;51.030;4.006;2022-11-14T06:23:28;19.47;;;15.40;;
29416;SDS011;28421;51.030;4.006;2022-11-14T06:29:05;16.63;;;14.05;;
29416;SDS011;28421;51.030;4.006;2022-11-14T06:34:34;18.48;;;12.57;;
29416;SDS011;28421;51.030;4.006;2022-11-14T06:37:18;17.03;;;14.63;;
29416;SDS011;28421;51.030;4.006;2022-11-14T06:40:02;15.80;;;13.05;;
29416;SDS011;28421;51.030;4.006;2022-11-14T06:42:45;20.90;;;14.20;;
29416;SDS011;28421;51.030;4.006;2022-11-14T06:45:29;18.00;;;13.70;;
29416;SDS011;28421;51.030;4.006;2022-11-14T06:48:13;15.27;;;12.73;;
29416;SDS011;28421;51.030;4.006;2022-11-14T06:50:57;17.50;;;13.70;;
29416;SDS011;28421;51.030;4.006;2022-11-14T06:53:42;15.00;;;12.70;;
29416;SDS011;28421;51.030;4.006;2022-11-14T06:56:26;16.33;;;12.30;;
29416;SDS011;28421;51.030;4.006;2022-11-14T06:59:10;16.60;;;14.52;;
29416;SDS011;28421;51.030;4.006;2022-11-14T07:01:54;18.20;;;14.03;;
29416;SDS011;28421;51.030;4.006;2022-11-14T07:04:38;19.52;;;14.15;;
29416;SDS011;28421;51.030;4.006;2022-11-14T07:07:22;40.07;;;23.40;;
29416;SDS011;28421;51.030;4.006;2022-11-14T07:10:07;32.92;;;20.17;;
29416;SDS011;28421;51.030;4.006;2022-11-14T07:12:51;31.33;;;19.55;;
29416;SDS011;28421;51.030;4.006;2022-11-14T07:15:35;35.63;;;20.17;;
29416;SDS011;28421;51.030;4.006;2022-11-14T07:18:19;26.77;;;18.23;;
29416;SDS011;28421;51.030;4.006;2022-11-14T07:21:04;21.60;;;16.13;;
29416;SDS011;28421;51.030;4.006;2022-11-14T07:23:48;24.27;;;16.75;;
29416;SDS011;28421;51.030;4.006;2022-11-14T07:26:32;22.63;;;15.18;;
29416;SDS011;28421;51.030;4.006;2022-11-14T07:29:16;16.85;;;13.65;;
29416;SDS011;28421;51.030;4.006;2022-11-14T07:32:00;21.85;;;14.57;;
29416;SDS011;28421;51.030;4.006;2022-11-14T07:34:44;20.95;;;14.75;;
29416;SDS011;28421;51.030;4.006;2022-11-14T07:37:28;23.27;;;14.60;;
29416;SDS011;28421;51.030;4.006;2022-11-14T07:40:12;20.98;;;14.32;;
29416;SDS011;28421;51.030;4.006;2022-11-14T07:42:56;21.58;;;13.25;;
29416;SDS011;28421;51.030;4.006;2022-11-14T07:45:41;15.65;;;13.02;;
29416;SDS011;28421;51.030;4.006;2022-11-14T07:48:26;16.60;;;12.60;;
29416;SDS011;28421;51.030;4.006;2022-11-14T07:51:18;14.77;;;11.38;;
29416;SDS011;28421;51.030;4.006;2022-11-14T07:54:02;17.60;;;11.43;;
29416;SDS011;28421;51.030;4.006;2022-11-14T07:56:46;21.10;;;13.07;;
29416;SDS011;28421;51.030;4.006;2022-11-14T07:59:30;17.33;;;12.93;;
29416;SDS011;28421;51.030;4.006;2022-11-14T08:02:14;19.42;;;12.70;;
29416;SDS011;28421;51.030;4.006;2022-11-14T08:04:58;18.60;;;13.85;;
29416;SDS011;28421;51.030;4.006;2022-11-14T08:07:42;19.95;;;13.50;;
29416;SDS011;28421;51.030;4.006;2022-11-14T08:13:10;19.60;;;14.15;;
29416;SDS011;28421;51.030;4.006;2022-11-14T08:15:54;26.83;;;16.33;;
29416;SDS011;28421;51.030;4.006;2022-11-14T08:18:38;25.93;;;16.10;;
29416;SDS011;28421;51.030;4.006;2022-11-14T08:21:22;22.60;;;15.00;;
29416;SDS011;28421;51.030;4.006;2022-11-14T08:24:07;29.20;;;16.20;;
29416;SDS011;28421;51.030;4.006;2022-11-14T08:29:35;27.55;;;14.93;;
29416;SDS011;28421;51.030;4.006;2022-11-14T08:32:19;27.17;;;16.08;;
29416;SDS011;28421;51.030;4.006;2022-11-14T08:35:04;36.47;;;17.48;;
29416;SDS011;28421;51.030;4.006;2022-11-14T08:37:48;35.15;;;18.52;;
29416;SDS011;28421;51.030;4.006;2022-11-14T08:40:32;27.27;;;15.93;;
29416;SDS011;28421;51.030;4.006;2022-11-14T08:43:16;24.95;;;15.38;;
29416;SDS011;28421;51.030;4.006;2022-11-14T08:46:00;26.57;;;16.97;;
29416;SDS011;28421;51.030;4.006;2022-11-14T08:48:46;26.92;;;15.00;;
29416;SDS011;28421;51.030;4.006;2022-11-14T08:51:30;23.98;;;16.30;;
29416;SDS011;28421;51.030;4.006;2022-11-14T08:54:14;21.02;;;13.85;;
29416;SDS011;28421;51.030;4.006;2022-11-14T08:56:58;24.27;;;15.47;;
29416;SDS011;28421;51.030;4.006;2022-11-14T08:59:42;22.05;;;15.70;;
29416;SDS011;28421;51.030;4.006;2022-11-14T09:02:26;25.17;;;14.88;;
29416;SDS011;28421;51.030;4.006;2022-11-14T09:05:10;33.47;;;16.83;;
29416;SDS011;28421;51.030;4.006;2022-11-14T09:07:53;27.42;;;16.00;;
29416;SDS011;28421;51.030;4.006;2022-11-14T09:10:38;25.95;;;17.02;;
29416;SDS011;28421;51.030;4.006;2022-11-14T09:13:22;24.35;;;15.98;;
29416;SDS011;28421;51.030;4.006;2022-11-14T09:18:52;27.50;;;16.63;;
29416;SDS011;28421;51.030;4.006;2022-11-14T09:21:36;30.63;;;17.42;;
29416;SDS011;28421;51.030;4.006;2022-11-14T09:24:20;35.85;;;19.38;;
29416;SDS011;28421;51.030;4.006;2022-11-14T09:27:04;31.83;;;17.07;;
29416;SDS011;28421;51.030;4.006;2022-11-14T09:29:48;28.05;;;16.83;;
29416;SDS011;28421;51.030;4.006;2022-11-14T09:32:32;27.27;;;16.23;;
29416;SDS011;28421;51.030;4.006;2022-11-14T09:35:16;31.08;;;17.08;;
29416;SDS011;28421;51.030;4.006;2022-11-14T09:38:01;25.00;;;15.13;;
29416;SDS011;28421;51.030;4.006;2022-11-14T09:44:14;29.98;;;17.10;;
29416;SDS011;28421;51.030;4.006;2022-11-14T09:47:16;29.98;;;17.48;;
29416;SDS011;28421;51.030;4.006;2022-11-14T09:50:10;28.92;;;16.08;;
29416;SDS011;28421;51.030;4.006;2022-11-14T09:53:02;33.10;;;17.08;;
29416;SDS011;28421;51.030;4.006;2022-11-14T09:55:53;30.85;;;16.95;;
29416;SDS011;28421;51.030;4.006;2022-11-14T09:58:37;28.42;;;16.23;;
29416;SDS011;28421;51.030;4.006;2022-11-14T10:01:27;26.73;;;16.48;;
29416;SDS011;28421;51.030;4.006;2022-11-14T10:11:06;28.35;;;15.73;;
29416;SDS011;28421;51.030;4.006;2022-11-14T10:20:19;24.48;;;15.52;;
29416;SDS011;28421;51.030;4.006;2022-11-14T10:26:14;24.08;;;15.75;;
29416;SDS011;28421;51.030;4.006;2022-11-14T10:35:38;32.85;;;16.88;;
29416;SDS011;28421;51.030;4.006;2022-11-14T10:38:38;27.60;;;16.00;;
29416;SDS011;28421;51.030;4.006;2022-11-14T10:41:26;31.13;;;17.67;;
29416;SDS011;28421;51.030;4.006;2022-11-14T10:44:13;26.83;;;16.83;;
29416;SDS011;28421;51.030;4.006;2022-11-14T10:47:04;25.90;;;16.50;;
29416;SDS011;28421;51.030;4.006;2022-11-14T10:49:54;25.77;;;16.77;;
29416;SDS011;28421;51.030;4.006;2022-11-14T10:52:41;29.05;;;16.23;;
29416;SDS011;28421;51.030;4.006;2022-11-14T10:55:27;33.15;;;18.77;;
29416;SDS011;28421;51.030;4.006;2022-11-14T10:58:11;29.13;;;17.23;;
29416;SDS011;28421;51.030;4.006;2022-11-14T11:01:14;31.27;;;18.45;;
29416;SDS011;28421;51.030;4.006;2022-11-14T11:04:32;29.75;;;18.00;;
29416;SDS011;28421;51.030;4.006;2022-11-14T11:07:23;32.75;;;19.02;;
29416;SDS011;28421;51.030;4.006;2022-11-14T11:10:27;38.33;;;20.52;;
29416;SDS011;28421;51.030;4.006;2022-11-14T11:16:18;37.20;;;21.17;;
29416;SDS011;28421;51.030;4.006;2022-11-14T11:19:14;36.95;;;19.25;;
29416;SDS011;28421;51.030;4.006;2022-11-14T11:22:23;34.25;;;19.77;;
29416;SDS011;28421;51.030;4.006;2022-11-14T11:25:22;37.72;;;20.90;;
29416;SDS011;28421;51.030;4.006;2022-11-14T11:31:01;35.65;;;19.63;;
29416;SDS011;28421;51.030;4.006;2022-11-14T11:33:47;34.47;;;20.25;;
29416;SDS011;28421;51.030;4.006;2022-11-14T11:36:31;34.05;;;20.58;;
29416;SDS011;28421;51.030;4.006;2022-11-14T11:39:23;37.63;;;20.25;;
29416;SDS011;28421;51.030;4.006;2022-11-14T11:42:13;36.35;;;20.42;;
29416;SDS011;28421;51.030;4.006;2022-11-14T11:45:01;36.95;;;20.27;;
29416;SDS011;28421;51.030;4.006;2022-11-14T11:47:56;42.08;;;21.58;;
29416;SDS011;28421;51.030;4.006;2022-11-14T11:50:41;36.60;;;20.95;;
29416;SDS011;28421;51.030;4.006;2022-11-14T11:56:24;39.67;;;21.95;;
29416;SDS011;28421;51.030;4.006;2022-11-14T11:59:22;37.15;;;20.65;;
29416;SDS011;28421;51.030;4.006;2022-11-14T12:02:24;38.15;;;21.45;;
29416;SDS011;28421;51.030;4.006;2022-11-14T12:05:17;43.78;;;21.48;;
29416;SDS011;28421;51.030;4.006;2022-11-14T12:08:16;38.20;;;21.83;;
29416;SDS011;28421;51.030;4.006;2022-11-14T12:11:13;38.90;;;21.75;;
29416;SDS011;28421;51.030;4.006;2022-11-14T12:17:23;44.10;;;24.73;;
29416;SDS011;28421;51.030;4.006;2022-11-14T12:32:35;53.28;;;23.48;;
29416;SDS011;28421;51.030;4.006;2022-11-14T12:35:25;39.08;;;22.65;;
29416;SDS011;28421;51.030;4.006;2022-11-14T12:38:13;42.00;;;22.50;;
29416;SDS011;28421;51.030;4.006;2022-11-14T12:41:01;40.95;;;22.20;;
29416;SDS011;28421;51.030;4.006;2022-11-14T12:43:46;35.67;;;21.33;;
29416;SDS011;28421;51.030;4.006;2022-11-14T12:46:51;41.70;;;19.67;;
29416;SDS011;28421;51.030;4.006;2022-11-14T12:58:10;36.70;;;21.08;;
29416;SDS011;28421;51.030;4.006;2022-11-14T13:10:10;36.95;;;21.33;;
29416;SDS011;28421;51.030;4.006;2022-11-14T13:13:10;36.90;;;21.30;;
29416;SDS011;28421;51.030;4.006;2022-11-14T13:16:24;39.75;;;21.70;;
29416;SDS011;28421;51.030;4.006;2022-11-14T13:19:31;35.33;;;20.90;;
29416;SDS011;28421;51.030;4.006;2022-11-14T13:22:36;37.65;;;20.30;;
29416;SDS011;28421;51.030;4.006;2022-11-14T13:25:22;41.28;;;22.80;;
29416;SDS011;28421;51.030;4.006;2022-11-14T13:28:42;41.28;;;21.65;;
29416;SDS011;28421;51.030;4.006;2022-11-14T13:31:20;37.38;;;19.60;;
29416;SDS011;28421;51.030;4.006;2022-11-14T13:40:40;40.85;;;22.58;;
29416;SDS011;28421;51.030;4.006;2022-11-14T13:50:07;38.03;;;22.02;;
29416;SDS011;28421;51.030;4.006;2022-11-14T13:52:56;41.65;;;22.73;;
29416;SDS011;28421;51.030;4.006;2022-11-14T14:11:26;28.52;;;17.33;;
29416;SDS011;28421;51.030;4.006;2022-11-14T14:23:16;30.15;;;16.92;;
29416;SDS011;28421;51.030;4.006;2022-11-14T14:32:14;30.85;;;17.90;;
29416;SDS011;28421;51.030;4.006;2022-11-14T14:35:18;28.85;;;17.63;;
29416;SDS011;28421;51.030;4.006;2022-11-14T14:38:04;40.55;;;19.33;;
29416;SDS011;28421;51.030;4.006;2022-11-14T14:40:54;32.22;;;18.33;;
29416;SDS011;28421;51.030;4.006;2022-11-14T14:43:39;33.42;;;17.67;;
29416;SDS011;28421;51.030;4.006;2022-11-14T14:46:30;30.30;;;17.27;;
29416;SDS011;28421;51.030;4.006;2022-11-14T14:49:34;32.40;;;18.13;;
29416;SDS011;28421;51.030;4.006;2022-11-14T14:52:27;33.70;;;19.10;;
29416;SDS011;28421;51.030;4.006;2022-11-14T14:55:20;39.40;;;20.60;;
29416;SDS011;28421;51.030;4.006;2022-11-14T15:01:22;42.88;;;21.30;;
29416;SDS011;28421;51.030;4.006;2022-11-14T15:04:14;40.35;;;21.48;;
29416;SDS011;28421;51.030;4.006;2022-11-14T15:07:00;37.38;;;20.90;;
29416;SDS011;28421;51.030;4.006;2022-11-14T15:09:53;39.78;;;20.85;;
29416;SDS011;28421;51.030;4.006;2022-11-14T15:12:42;36.33;;;20.65;;
29416;SDS011;28421;51.030;4.006;2022-11-14T15:15:27;38.70;;;19.77;;
29416;SDS011;28421;51.030;4.006;2022-11-14T15:21:26;31.85;;;17.77;;
29416;SDS011;28421;51.030;4.006;2022-11-14T15:24:16;28.63;;;17.27;;
29416;SDS011;28421;51.030;4.006;2022-11-14T15:27:02;33.03;;;19.25;;
29416;SDS011;28421;51.030;4.006;2022-11-14T15:29:52;31.00;;;18.20;;
29416;SDS011;28421;51.030;4.006;2022-11-14T15:32:46;33.00;;;18.58;;
29416;SDS011;28421;51.030;4.006;2022-11-14T15:35:32;34.63;;;20.02;;
29416;SDS011;28421;51.030;4.006;2022-11-14T15:38:19;35.85;;;18.58;;
29416;SDS011;28421;51.030;4.006;2022-11-14T15:41:09;32.13;;;18.27;;
29416;SDS011;28421;51.030;4.006;2022-11-14T15:44:02;30.13;;;16.40;;
29416;SDS011;28421;51.030;4.006;2022-11-14T15:46:47;24.55;;;14.38;;
29416;SDS011;28421;51.030;4.006;2022-11-14T15:49:32;34.35;;;18.63;;
29416;SDS011;28421;51.030;4.006;2022-11-14T15:52:19;33.42;;;18.67;;
29416;SDS011;28421;51.030;4.006;2022-11-14T15:55:12;34.85;;;20.48;;
29416;SDS011;28421;51.030;4.006;2022-11-14T15:58:01;36.80;;;20.83;;
29416;SDS011;28421;51.030;4.006;2022-11-14T16:00:48;31.75;;;17.58;;
29416;SDS011;28421;51.030;4.006;2022-11-14T16:03:34;29.05;;;17.90;;
29416;SDS011;28421;51.030;4.006;2022-11-14T16:06:19;27.52;;;15.55;;
29416;SDS011;28421;51.030;4.006;2022-11-14T16:09:03;26.90;;;16.63;;
29416;SDS011;28421;51.030;4.006;2022-11-14T16:11:47;29.63;;;16.58;;
29416;SDS011;28421;51.030;4.006;2022-11-14T16:14:31;24.75;;;14.30;;
29416;SDS011;28421;51.030;4.006;2022-11-14T16:17:16;30.45;;;15.27;;
29416;SDS011;28421;51.030;4.006;2022-11-14T16:20:02;30.02;;;16.83;;
29416;SDS011;28421;51.030;4.006;2022-11-14T16:22:51;31.48;;;16.70;;
29416;SDS011;28421;51.030;4.006;2022-11-14T16:25:36;25.80;;;15.63;;
29416;SDS011;28421;51.030;4.006;2022-11-14T16:28:20;28.55;;;15.55;;
29416;SDS011;28421;51.030;4.006;2022-11-14T16:31:09;33.33;;;17.02;;
29416;SDS011;28421;51.030;4.006;2022-11-14T16:33:54;34.13;;;18.33;;
29416;SDS011;28421;51.030;4.006;2022-11-14T16:36:40;28.83;;;15.93;;
29416;SDS011;28421;51.030;4.006;2022-11-14T16:39:24;30.90;;;18.07;;
29416;SDS011;28421;51.030;4.006;2022-11-14T16:42:11;32.33;;;19.17;;
29416;SDS011;28421;51.030;4.006;2022-11-14T16:44:59;32.00;;;17.95;;
29416;SDS011;28421;51.030;4.006;2022-11-14T16:47:47;43.83;;;22.13;;
29416;SDS011;28421;51.030;4.006;2022-11-14T16:53:15;42.85;;;22.90;;
29416;SDS011;28421;51.030;4.006;2022-11-14T16:55:59;52.92;;;28.80;;
29416;SDS011;28421;51.030;4.006;2022-11-14T16:58:43;64.18;;;32.53;;
29416;SDS011;28421;51.030;4.006;2022-11-14T17:01:27;55.53;;;28.73;;
29416;SDS011;28421;51.030;4.006;2022-11-14T17:04:11;55.13;;;27.75;;
29416;SDS011;28421;51.030;4.006;2022-11-14T17:06:55;52.83;;;28.08;;
29416;SDS011;28421;51.030;4.006;2022-11-14T17:09:39;50.53;;;26.95;;
29416;SDS011;28421;51.030;4.006;2022-11-14T17:12:23;45.60;;;24.98;;
29416;SDS011;28421;51.030;4.006;2022-11-14T17:15:07;41.47;;;21.80;;
29416;SDS011;28421;51.030;4.006;2022-11-14T17:17:51;41.65;;;21.42;;
29416;SDS011;28421;51.030;4.006;2022-11-14T17:20:36;37.17;;;21.75;;
29416;SDS011;28421;51.030;4.006;2022-11-14T17:23:21;38.42;;;19.42;;
29416;SDS011;28421;51.030;4.006;2022-11-14T17:26:06;36.10;;;21.25;;
29416;SDS011;28421;51.030;4.006;2022-11-14T17:28:52;35.50;;;17.98;;
29416;SDS011;28421;51.030;4.006;2022-11-14T17:31:36;31.15;;;17.70;;
29416;SDS011;28421;51.030;4.006;2022-11-14T17:34:20;31.00;;;18.80;;
29416;SDS011;28421;51.030;4.006;2022-11-14T17:37:04;40.47;;;21.20;;
29416;SDS011;28421;51.030;4.006;2022-11-14T17:39:48;34.30;;;19.27;;
29416;SDS011;28421;51.030;4.006;2022-11-14T17:42:32;33.15;;;17.40;;
29416;SDS011;28421;51.030;4.006;2022-11-14T17:45:16;32.40;;;16.98;;
29416;SDS011;28421;51.030;4.006;2022-11-14T17:48:00;32.10;;;17.60;;
29416;SDS011;28421;51.030;4.006;2022-11-14T17:50:44;28.05;;;15.65;;
29416;SDS011;28421;51.030;4.006;2022-11-14T17:53:27;32.90;;;16.52;;
29416;SDS011;28421;51.030;4.006;2022-11-14T17:56:13;33.73;;;16.80;;
29416;SDS011;28421;51.030;4.006;2022-11-14T17:59:05;34.63;;;17.08;;
29416;SDS011;28421;51.030;4.006;2022-11-14T18:01:49;32.22;;;16.38;;
29416;SDS011;28421;51.030;4.006;2022-11-14T18:04:33;35.40;;;20.23;;
29416;SDS011;28421;51.030;4.006;2022-11-14T18:07:17;36.55;;;19.27;;
29416;SDS011;28421;51.030;4.006;2022-11-14T18:10:03;36.85;;;19.23;;
29416;SDS011;28421;51.030;4.006;2022-11-14T18:12:47;43.00;;;20.35;;
29416;SDS011;28421;51.030;4.006;2022-11-14T18:15:31;40.30;;;20.83;;
29416;SDS011;28421;51.030;4.006;2022-11-14T18:18:15;47.17;;;20.38;;
29416;SDS011;28421;51.030;4.006;2022-11-14T18:21:06;44.35;;;20.90;;
29416;SDS011;28421;51.030;4.006;2022-11-14T18:23:55;39.53;;;21.85;;
29416;SDS011;28421;51.030;4.006;2022-11-14T18:26:41;40.65;;;20.15;;
29416;SDS011;28421;51.030;4.006;2022-11-14T18:29:25;41.60;;;19.92;;
29416;SDS011;28421;51.030;4.006;2022-11-14T18:32:11;43.47;;;20.80;;
29416;SDS011;28421;51.030;4.006;2022-11-14T18:34:55;47.72;;;21.10;;
29416;SDS011;28421;51.030;4.006;2022-11-14T18:37:39;50.33;;;21.33;;
29416;SDS011;28421;51.030;4.006;2022-11-14T18:40:23;43.90;;;20.98;;
29416;SDS011;28421;51.030;4.006;2022-11-14T18:43:06;52.83;;;22.92;;
29416;SDS011;28421;51.030;4.006;2022-11-14T18:45:51;51.45;;;22.77;;
29416;SDS011;28421;51.030;4.006;2022-11-14T18:48:52;38.05;;;20.20;;
29416;SDS011;28421;51.030;4.006;2022-11-14T18:51:38;47.13;;;22.00;;
29416;SDS011;28421;51.030;4.006;2022-11-14T18:54:24;47.78;;;23.35;;
29416;SDS011;28421;51.030;4.006;2022-11-14T18:57:08;50.78;;;22.25;;
29416;SDS011;28421;51.030;4.006;2022-11-14T18:59:52;49.28;;;24.15;;
29416;SDS011;28421;51.030;4.006;2022-11-14T19:02:36;50.38;;;22.85;;
29416;SDS011;28421;51.030;4.006;2022-11-14T19:05:20;44.05;;;22.10;;
29416;SDS011;28421;51.030;4.006;2022-11-14T19:08:04;47.50;;;22.27;;
29416;SDS011;28421;51.030;4.006;2022-11-14T19:10:50;50.38;;;23.13;;
29416;SDS011;28421;51.030;4.006;2022-11-14T19:13:34;51.38;;;22.42;;
29416;SDS011;28421;51.030;4.006;2022-11-14T19:16:18;51.47;;;22.30;;
29416;SDS011;28421;51.030;4.006;2022-11-14T19:19:02;43.10;;;20.60;;
29416;SDS011;28421;51.030;4.006;2022-11-14T19:21:47;39.10;;;19.35;;
29416;SDS011;28421;51.030;4.006;2022-11-14T19:24:35;41.58;;;20.23;;
29416;SDS011;28421;51.030;4.006;2022-11-14T19:27:19;39.95;;;18.33;;
29416;SDS011;28421;51.030;4.006;2022-11-14T19:30:04;41.90;;;19.35;;
29416;SDS011;28421;51.030;4.006;2022-11-14T19:32:49;41.60;;;20.02;;
29416;SDS011;28421;51.030;4.006;2022-11-14T19:35:36;43.72;;;19.83;;
29416;SDS011;28421;51.030;4.006;2022-11-14T19:38:21;41.92;;;19.33;;
29416;SDS011;28421;51.030;4.006;2022-11-14T19:41:23;39.10;;;18.85;;
29416;SDS011;28421;51.030;4.006;2022-11-14T19:44:09;34.35;;;19.35;;
29416;SDS011;28421;51.030;4.006;2022-11-14T19:46:55;43.92;;;20.23;;
29416;SDS011;28421;51.030;4.006;2022-11-14T19:49:38;49.05;;;21.10;;
29416;SDS011;28421;51.030;4.006;2022-11-14T19:52:22;46.22;;;22.35;;
29416;SDS011;28421;51.030;4.006;2022-11-14T19:55:06;44.97;;;21.75;;
29416;SDS011;28421;51.030;4.006;2022-11-14T19:57:50;40.13;;;21.38;;
29416;SDS011;28421;51.030;4.006;2022-11-14T20:00:34;50.97;;;22.60;;
29416;SDS011;28421;51.030;4.006;2022-11-14T20:03:18;44.92;;;21.38;;
29416;SDS011;28421;51.030;4.006;2022-11-14T20:06:03;44.00;;;21.98;;
29416;SDS011;28421;51.030;4.006;2022-11-14T20:08:55;48.75;;;21.77;;
29416;SDS011;28421;51.030;4.006;2022-11-14T20:11:40;46.20;;;22.58;;
29416;SDS011;28421;51.030;4.006;2022-11-14T20:14:24;54.63;;;23.08;;
29416;SDS011;28421;51.030;4.006;2022-11-14T20:17:11;51.08;;;22.35;;
29416;SDS011;28421;51.030;4.006;2022-11-14T20:19:55;51.33;;;22.65;;
29416;SDS011;28421;51.030;4.006;2022-11-14T20:22:39;54.30;;;23.17;;
29416;SDS011;28421;51.030;4.006;2022-11-14T20:25:23;53.53;;;24.60;;
29416;SDS011;28421;51.030;4.006;2022-11-14T20:28:07;54.20;;;23.80;;
29416;SDS011;28421;51.030;4.006;2022-11-14T20:30:52;45.40;;;23.25;;
29416;SDS011;28421;51.030;4.006;2022-11-14T20:33:37;49.70;;;23.50;;
29416;SDS011;28421;51.030;4.006;2022-11-14T20:36:23;51.67;;;26.10;;
29416;SDS011;28421;51.030;4.006;2022-11-14T20:39:08;57.63;;;25.88;;
29416;SDS011;28421;51.030;4.006;2022-11-14T20:41:53;51.57;;;23.60;;
29416;SDS011;28421;51.030;4.006;2022-11-14T20:44:36;50.70;;;24.20;;
29416;SDS011;28421;51.030;4.006;2022-11-14T20:47:21;46.70;;;23.23;;
29416;SDS011;28421;51.030;4.006;2022-11-14T20:50:05;44.50;;;23.27;;
29416;SDS011;28421;51.030;4.006;2022-11-14T20:52:49;55.70;;;24.02;;
29416;SDS011;28421;51.030;4.006;2022-11-14T20:55:34;49.58;;;25.20;;
29416;SDS011;28421;51.030;4.006;2022-11-14T20:58:18;59.65;;;25.60;;
29416;SDS011;28421;51.030;4.006;2022-11-14T21:01:03;58.97;;;26.02;;
29416;SDS011;28421;51.030;4.006;2022-11-14T21:03:47;53.83;;;26.73;;
29416;SDS011;28421;51.030;4.006;2022-11-14T21:06:31;52.47;;;25.33;;
29416;SDS011;28421;51.030;4.006;2022-11-14T21:09:15;53.58;;;24.83;;
29416;SDS011;28421;51.030;4.006;2022-11-14T21:11:59;44.03;;;23.88;;
29416;SDS011;28421;51.030;4.006;2022-11-14T21:14:43;54.00;;;24.30;;
29416;SDS011;28421;51.030;4.006;2022-11-14T21:17:27;61.13;;;25.17;;
29416;SDS011;28421;51.030;4.006;2022-11-14T21:20:13;49.90;;;23.60;;
29416;SDS011;28421;51.030;4.006;2022-11-14T21:22:57;57.50;;;24.23;;
29416;SDS011;28421;51.030;4.006;2022-11-14T21:25:41;55.92;;;26.90;;
29416;SDS011;28421;51.030;4.006;2022-11-14T21:28:26;52.97;;;26.25;;
29416;SDS011;28421;51.030;4.006;2022-11-14T21:31:14;51.97;;;25.40;;
29416;SDS011;28421;51.030;4.006;2022-11-14T21:34:11;52.08;;;23.17;;
29416;SDS011;28421;51.030;4.006;2022-11-14T21:36:57;47.05;;;23.42;;
29416;SDS011;28421;51.030;4.006;2022-11-14T21:39:40;47.33;;;22.98;;
29416;SDS011;28421;51.030;4.006;2022-11-14T21:42:24;44.88;;;22.48;;
29416;SDS011;28421;51.030;4.006;2022-11-14T21:45:08;46.03;;;22.77;;
29416;SDS011;28421;51.030;4.006;2022-11-14T21:47:53;47.58;;;23.27;;
29416;SDS011;28421;51.030;4.006;2022-11-14T21:50:37;57.80;;;24.33;;
29416;SDS011;28421;51.030;4.006;2022-11-14T21:53:21;43.75;;;23.30;;
29416;SDS011;28421;51.030;4.006;2022-11-14T21:56:09;52.58;;;24.77;;
29416;SDS011;28421;51.030;4.006;2022-11-14T21:58:56;50.20;;;24.73;;
